Time;durP1;ratioP1;P1;durP2;ratioP2;P2;SDS_P1;SDS_P2;PMS_P1;PMS_P2;Temp;Humidity;BMP_temperature;BMP_pressure;BME280_temperature;BME280_humidity;BME280_pressure;Samples;Min_cycle;Max_cycle;Signal;HPM_P1;HPM_P2
2023/05/31 00:02:00;;;;;;;81.90;17.13;;;;;;;;;;5076471;28;20382;-69
2023/05/31 00:04:25;;;;;;;84.73;17.13;;;;;;;;;;5095097;28;20036;-68
2023/05/31 00:06:50;;;;;;;83.77;17.37;;;;;;;;;;5081663;28;20024;-69
2023/05/31 00:09:16;;;;;;;88.77;17.17;;;;;;;;;;5076059;28;20509;-69
2023/05/31 00:11:41;;;;;;;86.90;17.87;;;;;;;;;;5078356;28;20027;-68
2023/05/31 00:14:06;;;;;;;83.90;17.80;;;;;;;;;;5085305;28;20024;-69
2023/05/31 00:16:32;;;;;;;90.90;19.33;;;;;;;;;;5063469;28;20161;-68
2023/05/31 00:18:57;;;;;;;96.77;18.90;;;;;;;;;;5075516;28;20531;-69
2023/05/31 00:21:23;;;;;;;88.23;18.60;;;;;;;;;;5082579;28;20095;-69
2023/05/31 00:23:48;;;;;;;91.37;17.93;;;;;;;;;;5095127;28;20031;-69
2023/05/31 00:26:13;;;;;;;87.27;17.57;;;;;;;;;;5098505;28;20016;-69
2023/05/31 00:28:39;;;;;;;83.23;17.63;;;;;;;;;;5095672;28;20097;-69
2023/05/31 00:31:04;;;;;;;93.73;17.80;;;;;;;;;;5096319;28;20424;-69
2023/05/31 00:33:29;;;;;;;99.27;18.70;;;;;;;;;;5093522;28;20055;-69
2023/05/31 00:35:54;;;;;;;95.83;18.47;;;;;;;;;;5088149;28;20056;-69
2023/05/31 00:38:20;;;;;;;97.10;18.53;;;;;;;;;;5093993;28;20470;-69
2023/05/31 00:40:47;;;;;;;97.13;18.27;;;;;;;;;;5083749;28;20025;-69
2023/05/31 00:43:12;;;;;;;101.03;17.80;;;;;;;;;;5089508;28;20085;-69
2023/05/31 00:45:37;;;;;;;105.43;18.87;;;;;;;;;;5094446;28;20023;-69
2023/05/31 00:48:03;;;;;;;89.00;17.10;;;;;;;;;;5106924;28;20157;-68
2023/05/31 00:50:28;;;;;;;99.70;17.67;;;;;;;;;;5092824;28;20038;-68
2023/05/31 00:52:54;;;;;;;110.97;19.27;;;;;;;;;;5093159;28;20016;-68
2023/05/31 00:55:20;;;;;;;99.87;18.63;;;;;;;;;;5096842;28;20430;-69
2023/05/31 00:57:45;;;;;;;105.23;19.97;;;;;;;;;;5109153;28;20010;-69
2023/05/31 01:03:15;;;;;;;92.53;17.50;;;;;;;;;;5112555;22;20065;-66
2023/05/31 01:05:41;;;;;;;89.63;17.87;;;;;;;;;;5073919;28;20043;-64
2023/05/31 01:08:06;;;;;;;97.57;18.63;;;;;;;;;;5072520;28;20024;-64
2023/05/31 01:10:32;;;;;;;114.10;19.47;;;;;;;;;;5081417;28;20025;-64
2023/05/31 01:13:26;;;;;;;99.83;18.37;;;;;;;;;;5075710;28;20477;-64
2023/05/31 01:15:57;;;;;;;94.60;18.27;;;;;;;;;;4999114;28;20035;-63
2023/05/31 01:18:26;;;;;;;98.63;18.30;;;;;;;;;;5073302;28;20031;-63
2023/05/31 01:20:53;;;;;;;97.17;18.53;;;;;;;;;;5073190;28;20021;-63
2023/05/31 01:23:54;;;;;;;91.57;18.07;;;;;;;;;;5073370;28;20462;-63
2023/05/31 01:26:40;;;;;;;93.03;18.10;;;;;;;;;;4991511;28;20120;-64
2023/05/31 01:29:10;;;;;;;97.90;17.53;;;;;;;;;;4972533;28;20042;-63
2023/05/31 01:31:36;;;;;;;103.73;19.43;;;;;;;;;;4989753;28;20034;-63
2023/05/31 01:34:03;;;;;;;93.33;18.67;;;;;;;;;;4990610;28;20570;-63
2023/05/31 01:36:28;;;;;;;111.40;19.27;;;;;;;;;;4988442;28;20026;-63
2023/05/31 01:38:54;;;;;;;106.00;19.17;;;;;;;;;;4991923;28;20561;-63
2023/05/31 01:41:20;;;;;;;117.03;20.20;;;;;;;;;;4991836;28;20034;-63
2023/05/31 01:43:46;;;;;;;105.00;20.10;;;;;;;;;;4991558;28;20026;-63
2023/05/31 01:46:13;;;;;;;109.03;19.27;;;;;;;;;;4978124;28;20027;-64
2023/05/31 01:48:39;;;;;;;107.10;20.67;;;;;;;;;;4991764;28;20030;-63
2023/05/31 01:51:06;;;;;;;107.37;20.53;;;;;;;;;;4990914;28;20503;-63
2023/05/31 01:53:31;;;;;;;118.13;20.27;;;;;;;;;;4989681;28;20121;-62
2023/05/31 01:55:57;;;;;;;119.27;19.87;;;;;;;;;;4989942;28;20492;-62
2023/05/31 01:58:24;;;;;;;124.63;20.73;;;;;;;;;;4991035;28;20101;-62
2023/05/31 02:00:50;;;;;;;105.37;19.13;;;;;;;;;;5050458;28;20060;-62
2023/05/31 02:03:15;;;;;;;123.03;20.10;;;;;;;;;;5086184;28;20466;-62
2023/05/31 02:05:59;;;;;;;115.57;19.93;;;;;;;;;;5075483;28;20048;-62
2023/05/31 02:08:25;;;;;;;125.57;20.27;;;;;;;;;;5072112;28;20104;-62
2023/05/31 02:10:51;;;;;;;120.87;20.27;;;;;;;;;;5072942;28;20052;-62
2023/05/31 02:13:17;;;;;;;116.10;20.90;;;;;;;;;;5072405;28;20119;-62
2023/05/31 02:15:42;;;;;;;112.70;20.10;;;;;;;;;;5074033;28;20531;-62
2023/05/31 02:18:08;;;;;;;111.13;19.70;;;;;;;;;;5078575;28;20017;-62
2023/05/31 02:20:33;;;;;;;106.20;19.50;;;;;;;;;;5072798;28;20020;-62
2023/05/31 02:22:58;;;;;;;116.40;20.40;;;;;;;;;;5072842;28;20028;-62
2023/05/31 02:25:24;;;;;;;115.93;19.90;;;;;;;;;;5072827;28;20016;-62
2023/05/31 02:27:49;;;;;;;114.93;19.70;;;;;;;;;;5073525;28;20029;-61
2023/05/31 02:30:15;;;;;;;108.63;20.07;;;;;;;;;;5072596;28;20082;-61
2023/05/31 02:32:41;;;;;;;102.47;20.00;;;;;;;;;;5075296;28;20031;-61
2023/05/31 02:35:07;;;;;;;108.10;20.37;;;;;;;;;;5072308;28;20024;-62
2023/05/31 02:37:33;;;;;;;112.47;21.50;;;;;;;;;;5073198;28;20024;-61
2023/05/31 02:39:58;;;;;;;112.77;19.87;;;;;;;;;;5082273;28;20096;-62
2023/05/31 02:42:23;;;;;;;99.07;19.40;;;;;;;;;;5072197;28;20021;-62
2023/05/31 02:44:48;;;;;;;104.37;20.27;;;;;;;;;;5072482;28;20025;-61
2023/05/31 02:47:14;;;;;;;101.67;19.60;;;;;;;;;;5085336;28;20023;-61
2023/05/31 02:49:39;;;;;;;113.47;20.73;;;;;;;;;;5077038;28;20367;-61
2023/05/31 02:52:05;;;;;;;111.33;20.30;;;;;;;;;;5075628;28;20085;-66
2023/05/31 02:54:30;;;;;;;109.37;20.77;;;;;;;;;;5076599;28;20026;-67
2023/05/31 02:56:55;;;;;;;108.53;19.47;;;;;;;;;;5086299;28;20384;-66
2023/05/31 02:59:21;;;;;;;107.43;19.73;;;;;;;;;;5079088;28;20378;-66
2023/05/31 03:01:46;;;;;;;95.07;18.33;;;;;;;;;;5079665;28;20020;-66
2023/05/31 03:04:11;;;;;;;92.67;19.57;;;;;;;;;;5079782;28;20033;-66
2023/05/31 03:06:39;;;;;;;108.63;19.97;;;;;;;;;;5079019;28;20385;-66
2023/05/31 03:09:05;;;;;;;116.20;20.23;;;;;;;;;;5075822;28;20438;-66
2023/05/31 03:11:30;;;;;;;98.40;19.70;;;;;;;;;;5076543;28;20040;-66
2023/05/31 03:13:55;;;;;;;112.73;21.50;;;;;;;;;;5075952;28;20028;-66
2023/05/31 03:16:20;;;;;;;110.73;21.53;;;;;;;;;;5075672;28;20075;-66
2023/05/31 03:18:46;;;;;;;120.13;22.47;;;;;;;;;;5084558;28;20025;-66
2023/05/31 03:21:11;;;;;;;115.83;21.03;;;;;;;;;;5075614;28;20103;-66
2023/05/31 03:23:37;;;;;;;119.27;21.63;;;;;;;;;;5075752;28;20035;-65
2023/05/31 03:26:02;;;;;;;110.17;20.60;;;;;;;;;;5076070;28;20035;-66
2023/05/31 03:28:27;;;;;;;96.63;20.30;;;;;;;;;;5076856;28;20036;-66
2023/05/31 03:30:53;;;;;;;105.87;20.23;;;;;;;;;;5073215;28;20041;-66
2023/05/31 03:33:18;;;;;;;107.97;20.13;;;;;;;;;;5076034;28;20028;-66
2023/05/31 03:35:44;;;;;;;109.77;21.40;;;;;;;;;;5074814;28;20414;-66
2023/05/31 03:38:10;;;;;;;99.67;20.83;;;;;;;;;;5074817;28;20127;-66
2023/05/31 03:40:35;;;;;;;109.17;21.87;;;;;;;;;;5080078;28;20047;-66
2023/05/31 03:43:01;;;;;;;104.13;20.17;;;;;;;;;;5074989;28;20107;-67
2023/05/31 03:45:26;;;;;;;109.77;22.80;;;;;;;;;;5075560;28;20469;-66
2023/05/31 03:47:51;;;;;;;115.83;24.87;;;;;;;;;;5079743;28;20122;-66
2023/05/31 03:50:17;;;;;;;127.33;24.70;;;;;;;;;;5060339;28;20056;-66
2023/05/31 03:52:42;;;;;;;115.73;24.53;;;;;;;;;;5074509;28;20107;-66
2023/05/31 03:55:07;;;;;;;118.57;24.27;;;;;;;;;;5074844;28;20363;-67
2023/05/31 03:57:33;;;;;;;114.00;25.50;;;;;;;;;;5072984;28;20021;-67
2023/05/31 03:59:59;;;;;;;113.80;25.90;;;;;;;;;;5074598;28;20421;-66
2023/05/31 04:02:25;;;;;;;123.10;26.80;;;;;;;;;;5072875;28;20444;-67
2023/05/31 04:04:50;;;;;;;117.97;28.37;;;;;;;;;;5075004;28;20050;-67
2023/05/31 04:07:15;;;;;;;107.47;25.83;;;;;;;;;;5075416;28;20070;-66
2023/05/31 04:09:41;;;;;;;98.10;24.53;;;;;;;;;;5075489;28;20032;-67
2023/05/31 04:12:06;;;;;;;94.07;25.43;;;;;;;;;;5088098;28;20024;-67
2023/05/31 04:14:31;;;;;;;87.27;22.73;;;;;;;;;;5095471;28;20052;-67
2023/05/31 04:16:57;;;;;;;68.40;19.73;;;;;;;;;;5091235;28;20028;-67
2023/05/31 04:19:22;;;;;;;57.80;18.80;;;;;;;;;;5095099;28;20016;-67
2023/05/31 04:21:47;;;;;;;46.27;16.43;;;;;;;;;;5091212;28;20103;-67
2023/05/31 04:24:13;;;;;;;42.20;13.73;;;;;;;;;;5067261;28;20020;-67
2023/05/31 04:26:38;;;;;;;36.23;13.20;;;;;;;;;;5074374;28;20602;-67
2023/05/31 04:29:03;;;;;;;32.40;12.53;;;;;;;;;;5074037;28;20052;-67
2023/05/31 04:31:29;;;;;;;28.97;11.73;;;;;;;;;;5070864;28;20028;-67
2023/05/31 04:33:56;;;;;;;27.70;11.30;;;;;;;;;;5065273;28;20482;-68
2023/05/31 04:36:22;;;;;;;23.90;10.33;;;;;;;;;;5071845;28;20027;-67
2023/05/31 04:38:48;;;;;;;22.40;9.40;;;;;;;;;;5063482;28;20024;-67
2023/05/31 04:41:15;;;;;;;18.53;8.63;;;;;;;;;;5075953;28;20016;-67
2023/05/31 04:43:42;;;;;;;20.27;9.00;;;;;;;;;;5072086;28;20024;-67
2023/05/31 04:46:09;;;;;;;18.37;8.07;;;;;;;;;;5075303;28;20491;-68
2023/05/31 04:48:34;;;;;;;14.45;7.10;;;;;;;;;;5075896;28;20051;-61
2023/05/31 04:51:00;;;;;;;14.95;7.25;;;;;;;;;;5074291;28;20052;-62
2023/05/31 04:53:25;;;;;;;18.20;7.30;;;;;;;;;;5080687;28;20404;-63
2023/05/31 04:55:51;;;;;;;13.93;7.28;;;;;;;;;;5073457;28;20087;-62
2023/05/31 04:58:17;;;;;;;17.20;7.20;;;;;;;;;;5073714;28;20050;-62
2023/05/31 05:00:42;;;;;;;14.02;7.68;;;;;;;;;;5072479;28;20028;-62
2023/05/31 05:03:07;;;;;;;15.32;7.28;;;;;;;;;;5091225;28;20020;-62
2023/05/31 05:05:33;;;;;;;18.10;7.72;;;;;;;;;;5094592;28;20074;-61
2023/05/31 05:07:58;;;;;;;16.52;7.40;;;;;;;;;;5094597;28;20525;-62
2023/05/31 05:10:23;;;;;;;16.90;7.13;;;;;;;;;;5078114;28;20104;-61
2023/05/31 05:12:49;;;;;;;17.58;7.43;;;;;;;;;;5090266;28;20051;-62
2023/05/31 05:15:14;;;;;;;17.42;7.95;;;;;;;;;;5093968;28;20020;-62
2023/05/31 05:17:41;;;;;;;19.88;8.13;;;;;;;;;;5089762;28;20036;-62
2023/05/31 05:20:08;;;;;;;15.13;7.07;;;;;;;;;;5094377;28;20473;-62
2023/05/31 05:22:33;;;;;;;16.02;7.97;;;;;;;;;;5086066;28;20041;-62
2023/05/31 05:24:59;;;;;;;14.73;7.72;;;;;;;;;;5074020;28;20470;-63
2023/05/31 05:27:24;;;;;;;20.77;8.52;;;;;;;;;;5073423;28;20020;-62
2023/05/31 05:29:49;;;;;;;16.63;8.98;;;;;;;;;;5073551;28;20055;-62
2023/05/31 05:32:15;;;;;;;17.73;8.55;;;;;;;;;;5078682;28;20024;-62
2023/05/31 05:34:40;;;;;;;20.90;8.57;;;;;;;;;;5084362;28;20024;-62
2023/05/31 05:37:05;;;;;;;15.85;8.48;;;;;;;;;;5073167;28;20016;-62
2023/05/31 05:39:31;;;;;;;17.88;8.50;;;;;;;;;;5073161;28;20017;-62
2023/05/31 05:41:56;;;;;;;16.67;8.15;;;;;;;;;;5071705;28;20021;-62
2023/05/31 05:44:21;;;;;;;17.48;8.02;;;;;;;;;;5073508;28;20032;-62
2023/05/31 05:46:47;;;;;;;20.30;8.35;;;;;;;;;;5072232;28;20091;-62
2023/05/31 05:49:12;;;;;;;20.40;8.80;;;;;;;;;;5085637;28;20016;-62
2023/05/31 05:51:37;;;;;;;19.77;8.45;;;;;;;;;;5084432;28;20033;-62
2023/05/31 05:54:03;;;;;;;17.05;8.50;;;;;;;;;;5092107;28;20016;-62
2023/05/31 05:56:28;;;;;;;15.65;8.27;;;;;;;;;;5093163;28;20048;-62
2023/05/31 05:58:53;;;;;;;18.13;8.65;;;;;;;;;;5093543;28;20023;-62
2023/05/31 06:01:20;;;;;;;16.08;8.38;;;;;;;;;;5093581;28;20565;-63
2023/05/31 06:03:46;;;;;;;17.98;8.82;;;;;;;;;;5077576;28;20048;-62
2023/05/31 06:06:11;;;;;;;18.80;9.18;;;;;;;;;;5072732;28;20020;-62
2023/05/31 06:08:36;;;;;;;16.27;8.57;;;;;;;;;;5073288;28;20031;-62
2023/05/31 06:11:03;;;;;;;17.60;8.50;;;;;;;;;;5073139;28;20017;-63
2023/05/31 06:13:28;;;;;;;17.38;8.07;;;;;;;;;;5087009;28;20032;-62
2023/05/31 06:15:53;;;;;;;16.40;7.97;;;;;;;;;;5093472;28;20024;-62
2023/05/31 06:18:18;;;;;;;15.48;7.55;;;;;;;;;;5089966;28;20020;-61
2023/05/31 06:20:44;;;;;;;14.02;7.70;;;;;;;;;;5090793;28;20046;-62
2023/05/31 06:23:09;;;;;;;12.18;7.18;;;;;;;;;;5093332;28;20031;-62
2023/05/31 06:25:35;;;;;;;17.88;7.20;;;;;;;;;;5091028;28;20024;-61
2023/05/31 06:28:01;;;;;;;16.73;6.32;;;;;;;;;;5091077;28;20019;-62
2023/05/31 06:30:26;;;;;;;14.77;6.95;;;;;;;;;;5083036;28;20540;-62
2023/05/31 06:32:51;;;;;;;16.95;6.65;;;;;;;;;;5073863;28;20020;-61
2023/05/31 06:35:17;;;;;;;14.13;7.28;;;;;;;;;;5093238;28;20012;-62
2023/05/31 06:37:42;;;;;;;14.10;6.30;;;;;;;;;;5076490;28;20091;-62
2023/05/31 06:40:08;;;;;;;12.88;7.13;;;;;;;;;;5072754;28;20482;-61
2023/05/31 06:42:34;;;;;;;14.13;6.15;;;;;;;;;;5071206;28;20024;-62
2023/05/31 06:44:59;;;;;;;12.70;6.22;;;;;;;;;;5093191;28;20039;-62
2023/05/31 06:47:25;;;;;;;12.25;6.40;;;;;;;;;;5091662;28;20150;-62
2023/05/31 06:49:50;;;;;;;13.70;7.03;;;;;;;;;;5078737;28;20058;-61
2023/05/31 06:52:16;;;;;;;12.80;6.20;;;;;;;;;;5090716;28;20103;-62
2023/05/31 06:54:42;;;;;;;12.30;6.25;;;;;;;;;;5072705;28;20012;-62
2023/05/31 06:57:07;;;;;;;13.63;7.03;;;;;;;;;;5072553;28;20021;-61
2023/05/31 06:59:33;;;;;;;13.50;5.47;;;;;;;;;;5070756;28;20100;-62
2023/05/31 07:01:58;;;;;;;14.95;7.10;;;;;;;;;;5092703;28;20027;-61
2023/05/31 07:04:23;;;;;;;13.15;7.25;;;;;;;;;;5083213;28;20048;-62
2023/05/31 07:06:49;;;;;;;11.68;5.82;;;;;;;;;;5090290;28;20138;-62
2023/05/31 07:09:14;;;;;;;13.73;6.25;;;;;;;;;;5072256;28;20039;-61
2023/05/31 07:11:40;;;;;;;11.38;5.68;;;;;;;;;;5072539;28;20051;-62
2023/05/31 07:14:05;;;;;;;11.80;5.90;;;;;;;;;;5072349;28;20108;-61
2023/05/31 07:16:31;;;;;;;10.23;5.28;;;;;;;;;;5072655;28;20111;-62
2023/05/31 07:18:56;;;;;;;10.93;5.10;;;;;;;;;;5079109;28;20055;-61
2023/05/31 07:21:21;;;;;;;14.27;5.57;;;;;;;;;;5092574;28;20419;-61
2023/05/31 07:23:47;;;;;;;11.20;5.20;;;;;;;;;;5092794;28;20012;-62
2023/05/31 07:26:12;;;;;;;13.20;5.28;;;;;;;;;;5092514;28;20496;-61
2023/05/31 07:28:38;;;;;;;11.07;5.25;;;;;;;;;;5076305;28;20031;-61
2023/05/31 07:31:03;;;;;;;13.27;5.00;;;;;;;;;;5072158;28;20040;-62
2023/05/31 07:33:29;;;;;;;10.75;5.18;;;;;;;;;;5072696;28;20023;-61
2023/05/31 07:35:54;;;;;;;10.90;5.18;;;;;;;;;;5081361;28;20046;-61
2023/05/31 07:38:19;;;;;;;11.10;4.80;;;;;;;;;;5077499;28;20048;-61
2023/05/31 07:40:45;;;;;;;9.82;5.00;;;;;;;;;;5087728;28;20032;-61
2023/05/31 07:43:13;;;;;;;10.52;5.32;;;;;;;;;;5075668;28;20450;-61
2023/05/31 07:45:38;;;;;;;13.43;5.30;;;;;;;;;;5076024;28;20474;-61
2023/05/31 07:48:04;;;;;;;11.10;5.50;;;;;;;;;;5079108;28;20050;-61
2023/05/31 07:50:29;;;;;;;8.25;3.78;;;;;;;;;;5095424;28;20077;-62
2023/05/31 07:52:55;;;;;;;9.43;4.32;;;;;;;;;;5095764;28;20028;-61
2023/05/31 07:55:20;;;;;;;11.32;4.70;;;;;;;;;;5095636;28;20020;-61
2023/05/31 07:57:45;;;;;;;8.77;3.85;;;;;;;;;;5093100;28;20020;-61
2023/05/31 08:00:13;;;;;;;9.35;3.85;;;;;;;;;;5075633;28;20486;-61
2023/05/31 08:02:38;;;;;;;10.02;4.28;;;;;;;;;;5074116;28;20508;-61
2023/05/31 08:05:04;;;;;;;8.80;4.00;;;;;;;;;;5076313;28;20049;-61
2023/05/31 08:07:30;;;;;;;8.25;3.50;;;;;;;;;;5095753;28;20393;-61
2023/05/31 08:09:55;;;;;;;10.77;3.95;;;;;;;;;;5085476;28;20035;-61
2023/05/31 08:12:20;;;;;;;7.88;3.42;;;;;;;;;;5075042;28;20016;-61
2023/05/31 08:14:46;;;;;;;7.78;3.58;;;;;;;;;;5075431;28;20016;-62
2023/05/31 08:17:11;;;;;;;10.02;4.13;;;;;;;;;;5094733;28;20385;-61
2023/05/31 08:19:36;;;;;;;8.25;3.80;;;;;;;;;;5090787;28;20020;-61
2023/05/31 08:22:02;;;;;;;9.60;3.90;;;;;;;;;;5095220;28;20023;-61
2023/05/31 08:24:28;;;;;;;9.52;3.70;;;;;;;;;;5095139;28;20053;-61
2023/05/31 08:26:53;;;;;;;10.75;4.13;;;;;;;;;;5095406;28;20425;-61
2023/05/31 08:29:18;;;;;;;7.68;3.05;;;;;;;;;;5092925;28;20020;-61
2023/05/31 08:31:43;;;;;;;6.55;2.90;;;;;;;;;;5095352;28;20026;-62
2023/05/31 08:34:09;;;;;;;8.48;2.80;;;;;;;;;;5090722;28;20077;-61
2023/05/31 08:36:34;;;;;;;7.07;2.92;;;;;;;;;;5076986;28;20024;-61
2023/05/31 08:38:59;;;;;;;5.93;2.25;;;;;;;;;;5088059;28;20020;-62
2023/05/31 08:41:27;;;;;;;6.88;2.38;;;;;;;;;;5094796;28;20377;-61
2023/05/31 08:43:53;;;;;;;9.82;2.80;;;;;;;;;;5091358;28;20073;-62
2023/05/31 08:46:19;;;;;;;6.53;2.50;;;;;;;;;;5074489;28;20016;-61
2023/05/31 08:48:54;;;;;;;5.45;2.53;;;;;;;;;;5076071;28;20055;-62
2023/05/31 08:51:19;;;;;;;8.73;3.10;;;;;;;;;;5094886;28;20024;-61
2023/05/31 08:53:46;;;;;;;10.07;2.97;;;;;;;;;;5094931;28;20377;-61
2023/05/31 08:56:12;;;;;;;9.07;3.10;;;;;;;;;;5084543;28;20017;-61
2023/05/31 08:58:38;;;;;;;9.05;3.08;;;;;;;;;;5076257;28;20343;-61
2023/05/31 09:01:04;;;;;;;6.28;2.70;;;;;;;;;;5074460;28;20019;-62
2023/05/31 09:03:32;;;;;;;9.88;2.88;;;;;;;;;;5082075;28;20044;-61
2023/05/31 09:05:57;;;;;;;10.80;2.97;;;;;;;;;;5094412;28;20094;-61
2023/05/31 09:08:23;;;;;;;9.98;2.90;;;;;;;;;;5094598;28;20024;-61
2023/05/31 09:10:49;;;;;;;6.15;2.80;;;;;;;;;;5077171;28;20020;-62
2023/05/31 09:13:14;;;;;;;7.00;2.75;;;;;;;;;;5084069;28;20393;-61
2023/05/31 09:15:41;;;;;;;6.93;2.70;;;;;;;;;;5094420;28;20012;-62
2023/05/31 09:18:18;;;;;;;8.65;3.42;;;;;;;;;;5089549;28;20023;-62
2023/05/31 09:20:45;;;;;;;9.32;2.50;;;;;;;;;;5094392;28;20099;-61
2023/05/31 09:23:11;;;;;;;10.55;2.53;;;;;;;;;;5093988;28;20022;-61
2023/05/31 09:25:46;;;;;;;5.68;2.30;;;;;;;;;;5076673;28;20377;-61
2023/05/31 09:28:12;;;;;;;10.02;2.78;;;;;;;;;;5073478;28;20021;-61
2023/05/31 09:30:37;;;;;;;7.05;2.70;;;;;;;;;;5055633;28;20031;-61
2023/05/31 09:33:03;;;;;;;9.35;2.33;;;;;;;;;;5073683;28;20142;-61
2023/05/31 09:35:28;;;;;;;8.35;2.30;;;;;;;;;;5092875;28;20022;-61
2023/05/31 09:37:53;;;;;;;4.70;1.63;;;;;;;;;;5072611;28;20017;-61
2023/05/31 09:40:25;;;;;;;9.73;2.30;;;;;;;;;;5073637;28;20043;-61
2023/05/31 09:42:51;;;;;;;6.60;1.83;;;;;;;;;;5074245;28;20427;-62
2023/05/31 09:45:17;;;;;;;8.05;1.95;;;;;;;;;;5093652;28;20055;-61
2023/05/31 09:47:42;;;;;;;7.38;2.28;;;;;;;;;;5093566;28;20095;-61
2023/05/31 09:50:08;;;;;;;9.63;2.17;;;;;;;;;;5089200;28;20454;-62
2023/05/31 09:52:37;;;;;;;8.43;2.15;;;;;;;;;;5093193;28;20489;-62
2023/05/31 09:55:06;;;;;;;11.45;2.30;;;;;;;;;;5076651;28;20488;-62
2023/05/31 09:57:33;;;;;;;8.57;1.95;;;;;;;;;;5091241;28;20164;-61
2023/05/31 10:00:04;;;;;;;6.68;2.00;;;;;;;;;;5084513;28;20028;-62
2023/05/31 10:02:29;;;;;;;5.53;1.80;;;;;;;;;;5073786;28;20115;-62
2023/05/31 10:04:56;;;;;;;10.38;2.10;;;;;;;;;;5087072;28;20115;-64
2023/05/31 10:07:22;;;;;;;5.78;2.00;;;;;;;;;;5089159;28;20370;-62
2023/05/31 10:09:47;;;;;;;7.50;2.03;;;;;;;;;;5087954;28;20104;-62
2023/05/31 10:12:13;;;;;;;12.07;2.13;;;;;;;;;;5089881;28;20381;-62
2023/05/31 10:14:41;;;;;;;7.35;2.45;;;;;;;;;;5093412;28;20111;-62
2023/05/31 10:17:08;;;;;;;11.75;2.60;;;;;;;;;;5093198;28;20013;-63
2023/05/31 10:19:40;;;;;;;6.50;2.33;;;;;;;;;;5088689;28;20047;-62
2023/05/31 10:22:07;;;;;;;9.13;2.50;;;;;;;;;;5093355;28;20370;-62
2023/05/31 10:24:40;;;;;;;7.68;2.40;;;;;;;;;;5093036;28;20024;-62
2023/05/31 10:27:06;;;;;;;6.35;2.25;;;;;;;;;;5093374;28;20027;-63
2023/05/31 10:29:35;;;;;;;8.10;2.63;;;;;;;;;;5090573;28;20472;-62
2023/05/31 10:32:08;;;;;;;7.43;2.20;;;;;;;;;;5093004;28;20089;-62
2023/05/31 10:34:33;;;;;;;6.60;2.22;;;;;;;;;;5085808;28;20061;-62
2023/05/31 10:36:59;;;;;;;7.28;2.63;;;;;;;;;;5090982;28;20012;-62
2023/05/31 10:39:42;;;;;;;7.50;2.38;;;;;;;;;;5079303;28;20027;-62
2023/05/31 10:42:28;;;;;;;6.90;2.20;;;;;;;;;;5073027;28;20023;-62
2023/05/31 10:44:59;;;;;;;7.05;2.50;;;;;;;;;;4991275;28;20031;-61
2023/05/31 10:47:28;;;;;;;8.55;2.45;;;;;;;;;;4990662;28;20045;-64
2023/05/31 10:49:55;;;;;;;8.05;2.20;;;;;;;;;;5009280;28;20057;-62
2023/05/31 10:52:20;;;;;;;6.30;2.05;;;;;;;;;;5010654;28;20108;-62
2023/05/31 10:54:46;;;;;;;8.57;2.22;;;;;;;;;;5007580;28;20030;-63
2023/05/31 10:57:12;;;;;;;6.50;2.33;;;;;;;;;;4991030;28;20026;-63
2023/05/31 10:59:45;;;;;;;6.93;1.98;;;;;;;;;;5007487;28;20022;-62
2023/05/31 11:02:11;;;;;;;8.32;2.00;;;;;;;;;;5010790;28;20033;-62
2023/05/31 11:04:36;;;;;;;6.07;1.88;;;;;;;;;;4994885;28;20398;-62
2023/05/31 11:07:11;;;;;;;5.82;1.90;;;;;;;;;;4987054;28;20031;-62
2023/05/31 11:09:38;;;;;;;5.88;1.92;;;;;;;;;;4957804;28;20027;-63
2023/05/31 11:12:03;;;;;;;7.32;1.98;;;;;;;;;;4994984;28;20038;-63
2023/05/31 11:14:30;;;;;;;6.00;1.70;;;;;;;;;;4994905;28;20121;-62
2023/05/31 11:17:14;;;;;;;6.90;2.00;;;;;;;;;;4991071;28;20535;-63
2023/05/31 11:19:41;;;;;;;6.75;1.73;;;;;;;;;;4987810;28;20487;-63
2023/05/31 11:22:07;;;;;;;6.75;1.88;;;;;;;;;;5036236;28;20045;-64
2023/05/31 11:24:59;;;;;;;7.53;1.65;;;;;;;;;;5035653;28;20029;-63
2023/05/31 11:27:37;;;;;;;6.20;2.00;;;;;;;;;;5015154;28;20510;-62
2023/05/31 11:30:06;;;;;;;4.55;1.50;;;;;;;;;;5016556;28;20097;-62
2023/05/31 11:32:55;;;;;;;6.13;1.65;;;;;;;;;;5024767;28;20097;-62
2023/05/31 11:35:20;;;;;;;10.10;1.70;;;;;;;;;;5052016;28;20028;-63
2023/05/31 11:37:46;;;;;;;4.55;1.60;;;;;;;;;;5035401;28;20098;-63
2023/05/31 11:40:12;;;;;;;7.07;1.80;;;;;;;;;;5036057;28;20515;-63
2023/05/31 11:42:38;;;;;;;4.90;1.70;;;;;;;;;;5039935;28;20406;-63
2023/05/31 11:45:08;;;;;;;5.95;2.05;;;;;;;;;;5050985;28;20020;-63
2023/05/31 11:47:37;;;;;;;7.13;1.90;;;;;;;;;;5034645;28;20022;-63
2023/05/31 11:50:03;;;;;;;7.95;2.40;;;;;;;;;;5055922;28;20129;-64
2023/05/31 11:52:28;;;;;;;8.73;1.90;;;;;;;;;;5039889;28;20029;-64
2023/05/31 11:54:56;;;;;;;5.47;1.50;;;;;;;;;;5042590;28;20079;-63
2023/05/31 11:57:22;;;;;;;5.43;1.65;;;;;;;;;;5055768;28;20071;-64
2023/05/31 11:59:47;;;;;;;6.50;1.77;;;;;;;;;;5041186;28;20415;-64
2023/05/31 12:02:13;;;;;;;9.35;1.70;;;;;;;;;;5035549;28;20379;-64
2023/05/31 12:04:39;;;;;;;6.95;1.90;;;;;;;;;;5076718;28;20043;-63
2023/05/31 12:07:05;;;;;;;7.03;1.73;;;;;;;;;;5095736;28;20089;-63
2023/05/31 12:09:32;;;;;;;5.32;1.70;;;;;;;;;;5094466;28;20032;-63
2023/05/31 12:11:57;;;;;;;6.07;1.70;;;;;;;;;;5077361;28;20105;-64
2023/05/31 12:14:23;;;;;;;6.50;1.63;;;;;;;;;;5075106;28;20071;-63
2023/05/31 12:16:49;;;;;;;7.45;1.88;;;;;;;;;;5075534;28;20039;-63
2023/05/31 12:19:15;;;;;;;4.70;1.60;;;;;;;;;;5083052;28;20028;-63
2023/05/31 12:21:40;;;;;;;6.15;1.80;;;;;;;;;;5095448;28;20065;-63
2023/05/31 12:24:12;;;;;;;4.88;1.50;;;;;;;;;;5095564;28;20043;-64
2023/05/31 12:26:38;;;;;;;6.80;1.92;;;;;;;;;;5095534;28;20493;-63
2023/05/31 12:29:03;;;;;;;6.15;1.70;;;;;;;;;;5094513;28;20028;-64
2023/05/31 12:31:32;;;;;;;5.57;1.73;;;;;;;;;;5095253;28;20024;-63
2023/05/31 12:34:07;;;;;;;5.40;1.70;;;;;;;;;;5092228;28;20465;-63
2023/05/31 12:36:51;;;;;;;4.93;1.60;;;;;;;;;;5095202;28;20377;-64
2023/05/31 12:39:20;;;;;;;5.07;1.40;;;;;;;;;;5094041;28;20066;-64
2023/05/31 12:41:48;;;;;;;5.55;1.60;;;;;;;;;;5077727;28;20466;-65
2023/05/31 12:44:19;;;;;;;6.40;2.20;;;;;;;;;;5074608;28;20024;-65
2023/05/31 12:46:45;;;;;;;7.47;2.35;;;;;;;;;;5074122;28;20458;-64
2023/05/31 12:49:18;;;;;;;7.53;2.22;;;;;;;;;;5080817;28;20023;-64
2023/05/31 12:51:43;;;;;;;5.97;2.25;;;;;;;;;;5094892;28;20031;-66
2023/05/31 12:54:28;;;;;;;6.05;2.17;;;;;;;;;;5094476;28;20444;-67
2023/05/31 12:56:53;;;;;;;7.28;2.30;;;;;;;;;;5094632;28;20083;-64
2023/05/31 12:59:19;;;;;;;10.55;2.50;;;;;;;;;;5092520;28;20020;-63
2023/05/31 13:01:44;;;;;;;8.73;2.40;;;;;;;;;;5094752;28;20015;-65
2023/05/31 13:04:11;;;;;;;6.43;2.25;;;;;;;;;;5090225;28;20485;-66
2023/05/31 13:06:36;;;;;;;6.30;1.92;;;;;;;;;;5075339;28;20107;-65
2023/05/31 13:09:04;;;;;;;6.50;2.10;;;;;;;;;;5074335;28;20044;-64
2023/05/31 13:11:30;;;;;;;7.57;1.90;;;;;;;;;;5084403;28;20032;-64
2023/05/31 13:13:55;;;;;;;6.68;1.70;;;;;;;;;;5088001;28;20024;-66
2023/05/31 13:16:21;;;;;;;5.78;1.90;;;;;;;;;;5074088;28;20096;-66
2023/05/31 13:18:46;;;;;;;6.30;1.90;;;;;;;;;;5073575;28;20378;-66
2023/05/31 13:21:11;;;;;;;7.72;2.10;;;;;;;;;;5094314;28;20016;-66
2023/05/31 13:23:37;;;;;;;5.85;1.60;;;;;;;;;;5092558;28;20051;-66
2023/05/31 13:26:02;;;;;;;5.57;1.50;;;;;;;;;;5094099;28;20027;-67
2023/05/31 13:28:28;;;;;;;5.43;1.50;;;;;;;;;;5093549;28;20024;-67
2023/05/31 13:30:53;;;;;;;5.63;1.80;;;;;;;;;;5077168;28;20023;-67
2023/05/31 13:33:18;;;;;;;6.82;1.90;;;;;;;;;;5094003;28;20047;-66
2023/05/31 13:35:45;;;;;;;6.03;1.70;;;;;;;;;;5089792;28;20402;-66
2023/05/31 13:38:10;;;;;;;5.68;1.75;;;;;;;;;;5075044;28;20025;-67
2023/05/31 13:40:37;;;;;;;4.50;1.25;;;;;;;;;;5074658;28;20036;-67
2023/05/31 13:43:02;;;;;;;6.22;1.20;;;;;;;;;;5092181;28;20432;-68
2023/05/31 13:45:27;;;;;;;3.47;1.25;;;;;;;;;;5072595;28;20023;-67
2023/05/31 13:47:53;;;;;;;6.47;1.92;;;;;;;;;;5073678;28;20455;-67
2023/05/31 13:50:18;;;;;;;4.05;1.35;;;;;;;;;;5084208;28;20024;-67
2023/05/31 13:52:43;;;;;;;4.55;1.38;;;;;;;;;;5073166;28;20099;-68
2023/05/31 13:55:08;;;;;;;7.35;1.80;;;;;;;;;;5073274;28;20020;-67
2023/05/31 13:57:34;;;;;;;7.18;1.85;;;;;;;;;;5087517;28;20031;-68
2023/05/31 13:59:59;;;;;;;4.43;1.33;;;;;;;;;;5077941;28;20028;-67
2023/05/31 14:02:25;;;;;;;4.38;1.23;;;;;;;;;;5073366;28;20020;-69
2023/05/31 14:04:50;;;;;;;5.55;1.40;;;;;;;;;;5078908;28;20047;-70
2023/05/31 14:07:15;;;;;;;6.18;1.40;;;;;;;;;;5093412;28;20031;-69
2023/05/31 14:09:42;;;;;;;7.15;1.63;;;;;;;;;;5092583;28;20099;-70
2023/05/31 14:12:07;;;;;;;4.55;1.45;;;;;;;;;;5093249;28;20028;-69
2023/05/31 14:14:33;;;;;;;4.75;1.20;;;;;;;;;;5093279;28;20073;-69
2023/05/31 14:16:59;;;;;;;4.82;1.10;;;;;;;;;;5093158;28;20378;-69
2023/05/31 14:19:24;;;;;;;4.45;1.10;;;;;;;;;;5075051;28;20523;-67
2023/05/31 14:21:50;;;;;;;6.38;1.30;;;;;;;;;;5093130;28;20036;-68
2023/05/31 14:24:15;;;;;;;4.80;1.40;;;;;;;;;;5091703;28;20137;-69
2023/05/31 14:26:41;;;;;;;4.93;1.38;;;;;;;;;;5054931;28;20394;-71
2023/05/31 14:29:06;;;;;;;5.78;1.20;;;;;;;;;;5072061;28;20421;-71